MAPA DE AEROPUERTO

INFORMACIÓN METAR y TAF

METAR FOR LEBA
ADDS - METARS form results

(1114 UTC 27 November 2021)
Data provider http://aviationweather.gov/metar/data/
 
METAR text: LEBA 271100Z 24009KT 210V270 CAVOK 10/04 Q1012
Conditions at: LEBA (CORDOBA AIRPORT , ES) observed 1100 UTC 27 November 2021
Temperature: 10.0°C (50°F)
Dewpoint: 4.0°C (39°F) [RH = 66%]
Pressure (altimeter): 29.88 inches Hg (1012.0 mb)
Winds: from the WSW (240 degrees) at 10 MPH (9 knots; 4.6 m/s)
Visibility: 6 or more miles (10+ km)
Ceiling: ceiling and visibility are OK
Clouds: unknown
Weather: no significant weather observed at this time

METAR text: LEBA 271030Z 23009KT 200V280 CAVOK 09/03 Q1012
Conditions at: LEBA (CORDOBA AIRPORT , ES) observed 1030 UTC 27 November 2021
Temperature: 9.0°C (48°F)
Dewpoint: 3.0°C (37°F) [RH = 66%]
Pressure (altimeter): 29.88 inches Hg (1012.0 mb)
Winds: from the SW (230 degrees) at 10 MPH (9 knots; 4.6 m/s)
Visibility: 6 or more miles (10+ km)
Ceiling: ceiling and visibility are OK
Clouds: unknown
Weather: no significant weather observed at this time

Forecast for: LEBA (CORDOBA AIRPORT , ES)
Text: TAF LEBA 270800Z 2709/2809 28009KT CAVOK TX15/2715Z TN01/2807Z
Forecast period: 0900 UTC 27 November 2021 to 0900 UTC 28 November 2021
Forecast type: FROM: standard forecast or significant change
Winds: from the W (280 degrees) at 10 MPH (9 knots; 4.6 m/s)
Visibility: 6 or more miles (10+ km)
Ceiling: unknown
Clouds: missing
Weather: no significant weather forecast for this period